Time;durP1;ratioP1;P1;durP2;ratioP2;P2;SDS_P1;SDS_P2;PMS_P1;PMS_P2;Temp;Humidity;BMP_temperature;BMP_pressure;BME280_temperature;BME280_humidity;BME280_pressure;Samples;Min_cycle;Max_cycle;Signal;HPM_P1;HPM_P2
2023/11/07 00:01:44;;;;;;;9.32;2.30;;;;;;;11.04;70.91;98793.28;4975545;28;20137;-76
2023/11/07 00:04:12;;;;;;;8.57;2.17;;;;;;;11.05;71.01;98801.09;4975664;28;20051;-76
2023/11/07 00:06:42;;;;;;;6.35;1.90;;;;;;;11.07;70.92;98801.78;4975362;28;20057;-76
2023/11/07 00:09:08;;;;;;;12.63;2.60;;;;;;;11.05;70.71;98793.19;4975771;28;20058;-77
2023/11/07 00:11:36;;;;;;;4.75;1.80;;;;;;;11.06;70.76;98802.75;4975251;28;20051;-76
2023/11/07 00:14:02;;;;;;;6.75;2.50;;;;;;;11.03;70.78;98810.88;4975588;28;20050;-78
2023/11/07 00:16:30;;;;;;;8.65;2.47;;;;;;;11.03;70.81;98807.41;4975480;28;20090;-76
2023/11/07 00:18:56;;;;;;;5.55;2.35;;;;;;;11.00;70.76;98808.50;4975423;28;20174;-75
2023/11/07 00:21:23;;;;;;;12.60;2.28;;;;;;;11.00;70.73;98819.03;4975002;28;20073;-76
2023/11/07 00:23:50;;;;;;;9.55;2.92;;;;;;;10.98;70.74;98820.09;4975406;28;20086;-77
2023/11/07 00:26:18;;;;;;;9.38;3.00;;;;;;;10.97;70.88;98821.88;4975252;28;20046;-76
2023/11/07 00:28:45;;;;;;;9.38;2.80;;;;;;;10.97;71.06;98815.75;4975360;28;20047;-77
2023/11/07 00:31:11;;;;;;;7.18;2.53;;;;;;;10.97;71.21;98813.13;4974825;28;20146;-77
2023/11/07 00:33:38;;;;;;;11.82;2.95;;;;;;;10.97;70.77;98823.66;4975045;28;20050;-77
2023/11/07 00:36:05;;;;;;;7.85;2.95;;;;;;;10.95;70.74;98829.03;4975005;28;20535;-77
2023/11/07 00:38:32;;;;;;;9.15;2.70;;;;;;;10.96;70.80;98836.00;4973898;28;20566;-77
2023/11/07 00:40:59;;;;;;;11.45;3.17;;;;;;;10.95;71.00;98834.28;4974780;28;20558;-76
2023/11/07 00:43:25;;;;;;;9.10;2.88;;;;;;;10.94;70.98;98836.13;4975090;28;20396;-76
2023/11/07 00:45:52;;;;;;;5.78;2.67;;;;;;;10.93;71.00;98831.81;4974901;28;20448;-78
2023/11/07 00:48:19;;;;;;;10.57;2.80;;;;;;;10.93;70.85;98842.34;4974639;28;20051;-76
2023/11/07 00:50:45;;;;;;;10.73;2.72;;;;;;;10.93;71.20;98841.50;4973563;28;20046;-76
2023/11/07 00:53:12;;;;;;;5.72;2.75;;;;;;;10.93;71.34;98838.84;4974687;28;20407;-78
2023/11/07 00:55:39;;;;;;;7.10;2.85;;;;;;;10.95;71.33;98842.19;4974675;28;20055;-76
2023/11/07 00:58:06;;;;;;;7.18;2.90;;;;;;;10.96;71.49;98846.53;4974675;28;20113;-78
2023/11/07 01:00:35;;;;;;;9.27;2.90;;;;;;;10.97;71.17;98850.00;4973222;28;20082;-76
2023/11/07 01:03:02;;;;;;;7.38;2.72;;;;;;;10.98;71.12;98836.72;4974500;28;20102;-77
2023/11/07 01:05:29;;;;;;;8.05;2.83;;;;;;;10.98;71.05;98852.50;4974738;28;20478;-77
2023/11/07 01:07:56;;;;;;;14.00;3.13;;;;;;;10.99;70.98;98840.19;4974516;28;20051;-77
2023/11/07 01:10:22;;;;;;;11.50;3.10;;;;;;;10.99;71.17;98846.28;4974382;28;20082;-76
2023/11/07 01:12:52;;;;;;;9.15;3.25;;;;;;;10.99;71.06;98837.56;4974403;28;20051;-77
2023/11/07 01:15:19;;;;;;;6.22;2.67;;;;;;;11.00;71.27;98842.72;4974128;28;20057;-76
2023/11/07 01:17:46;;;;;;;11.57;3.42;;;;;;;10.99;71.11;98841.03;4974499;28;20074;-76
2023/11/07 01:20:13;;;;;;;14.13;3.30;;;;;;;10.99;71.29;98841.03;4974446;28;20660;-76
2023/11/07 01:22:39;;;;;;;11.10;2.83;;;;;;;11.00;71.12;98836.59;4974338;28;20046;-76
2023/11/07 01:25:06;;;;;;;9.05;2.67;;;;;;;11.00;70.99;98840.09;4974341;28;20130;-77
2023/11/07 01:27:33;;;;;;;10.55;3.30;;;;;;;10.98;71.18;98839.34;4973975;28;20055;-77
2023/11/07 01:29:59;;;;;;;9.68;2.58;;;;;;;10.99;71.13;98854.19;4973809;28;20046;-76
2023/11/07 01:32:28;;;;;;;7.95;3.22;;;;;;;10.98;71.05;98847.25;4974207;28;20059;-76
2023/11/07 01:34:55;;;;;;;6.65;2.78;;;;;;;10.99;71.28;98845.47;4974168;28;20054;-77
2023/11/07 01:37:21;;;;;;;6.85;2.85;;;;;;;10.99;71.17;98843.66;4974000;28;20054;-76
2023/11/07 01:39:48;;;;;;;9.95;3.28;;;;;;;10.99;71.05;98851.56;4973942;28;20058;-76
2023/11/07 01:42:14;;;;;;;9.48;3.83;;;;;;;10.99;70.93;98841.03;4973582;28;20563;-77
2023/11/07 01:44:49;;;;;;;8.57;2.78;;;;;;;10.97;70.89;98850.84;4973758;28;20046;-76
2023/11/07 01:47:18;;;;;;;8.38;2.42;;;;;;;10.97;70.84;98850.84;4973872;28;20047;-77
2023/11/07 01:49:46;;;;;;;7.70;2.83;;;;;;;10.95;70.72;98843.06;4973867;28;20055;-76
2023/11/07 01:52:16;;;;;;;8.88;2.75;;;;;;;10.95;70.91;98844.84;4972212;28;20535;-77
2023/11/07 01:54:44;;;;;;;11.60;3.70;;;;;;;10.95;70.92;98847.47;4973739;28;20054;-77
2023/11/07 01:57:12;;;;;;;5.47;2.33;;;;;;;10.92;70.93;98856.44;4973510;28;20105;-76
2023/11/07 01:59:39;;;;;;;10.98;2.55;;;;;;;10.93;70.95;98857.28;4973644;28;20404;-76
2023/11/07 02:02:10;;;;;;;6.97;2.78;;;;;;;10.91;70.87;98851.28;4972024;28;20578;-77
2023/11/07 02:04:36;;;;;;;7.05;2.63;;;;;;;10.93;71.14;98852.03;4973651;28;20058;-76
2023/11/07 02:07:03;;;;;;;6.82;2.75;;;;;;;10.92;71.23;98851.16;4973286;28;20059;-77
2023/11/07 02:09:30;;;;;;;6.78;2.20;;;;;;;10.91;71.18;98857.38;4973326;28;20108;-77
2023/11/07 02:11:57;;;;;;;8.23;2.35;;;;;;;10.92;71.16;98852.97;4971744;28;20132;-78
2023/11/07 02:14:35;;;;;;;9.50;3.00;;;;;;;10.89;70.97;98850.56;4973411;28;20055;-77
2023/11/07 02:17:05;;;;;;;7.97;2.42;;;;;;;10.90;70.90;98852.22;4973277;28;20050;-77
2023/11/07 02:19:32;;;;;;;11.23;3.17;;;;;;;10.90;70.98;98860.97;4973233;28;20096;-78
2023/11/07 02:22:00;;;;;;;8.75;2.60;;;;;;;10.89;70.93;98861.09;4972946;28;20610;-76
2023/11/07 02:24:27;;;;;;;11.02;2.78;;;;;;;10.88;71.11;98857.59;4971834;28;20058;-77
2023/11/07 02:26:55;;;;;;;11.23;3.22;;;;;;;10.87;71.00;98861.19;4972845;28;20511;-76
2023/11/07 02:29:22;;;;;;;11.30;2.88;;;;;;;10.87;71.02;98863.00;4973104;28;20134;-76
2023/11/07 02:31:50;;;;;;;8.65;2.38;;;;;;;10.84;70.91;98861.41;4972752;28;20146;-76
2023/11/07 02:34:17;;;;;;;7.95;2.95;;;;;;;10.84;71.05;98864.03;4972988;28;20105;-76
2023/11/07 02:36:44;;;;;;;10.18;2.50;;;;;;;10.82;71.09;98852.81;4972793;28;20051;-77
2023/11/07 02:39:12;;;;;;;8.40;2.70;;;;;;;10.81;71.29;98859.03;4973037;28;20086;-76
2023/11/07 02:41:39;;;;;;;7.18;2.40;;;;;;;10.81;71.48;98853.75;4972474;28;20050;-77
2023/11/07 02:44:06;;;;;;;9.20;2.63;;;;;;;10.80;71.63;98858.19;4972893;28;20050;-77
2023/11/07 02:46:33;;;;;;;9.45;3.50;;;;;;;10.81;71.34;98854.59;4972775;28;20082;-76
2023/11/07 02:48:59;;;;;;;7.03;2.90;;;;;;;10.82;71.43;98850.16;4972484;28;20078;-77
2023/11/07 02:51:26;;;;;;;10.80;2.85;;;;;;;10.81;71.56;98853.75;4972718;28;20059;-77
2023/11/07 02:53:53;;;;;;;9.32;3.28;;;;;;;10.82;71.62;98851.03;4972817;28;20133;-75
2023/11/07 02:56:25;;;;;;;11.80;3.38;;;;;;;10.80;71.92;98863.44;4972618;28;20532;-76
2023/11/07 02:58:53;;;;;;;9.43;2.75;;;;;;;10.82;71.93;98856.28;4972643;28;20504;-76
2023/11/07 03:01:21;;;;;;;12.73;3.15;;;;;;;10.85;71.94;98843.84;4972336;28;20093;-76
2023/11/07 03:03:49;;;;;;;9.10;2.97;;;;;;;10.85;71.84;98846.47;4972395;28;20176;-76
2023/11/07 03:06:17;;;;;;;7.95;3.05;;;;;;;10.88;71.84;98851.53;4971460;28;20149;-76
2023/11/07 03:08:44;;;;;;;8.30;2.72;;;;;;;10.90;72.09;98850.44;4972598;28;20134;-76
2023/11/07 03:11:11;;;;;;;7.57;2.90;;;;;;;10.92;72.04;98850.34;4972248;28;20050;-77
2023/11/07 03:13:38;;;;;;;7.93;2.70;;;;;;;10.95;72.09;98855.38;4972352;28;20451;-76
2023/11/07 03:16:05;;;;;;;9.15;3.38;;;;;;;10.97;72.09;98853.47;4972464;28;20046;-76
2023/11/07 03:18:32;;;;;;;7.55;2.67;;;;;;;11.00;71.95;98855.88;4972299;28;20051;-76
2023/11/07 03:20:59;;;;;;;8.18;3.13;;;;;;;11.03;72.27;98853.00;4972562;28;20101;-76
2023/11/07 03:23:28;;;;;;;6.90;3.28;;;;;;;11.05;72.15;98858.16;4971742;28;20459;-77
2023/11/07 03:25:54;;;;;;;10.13;3.35;;;;;;;11.08;72.23;98858.81;4972347;28;20046;-76
2023/11/07 03:28:21;;;;;;;6.50;2.58;;;;;;;11.11;72.17;98855.09;4972155;28;20050;-76
2023/11/07 03:30:48;;;;;;;5.43;2.97;;;;;;;11.14;72.15;98859.28;4971951;28;20141;-77
2023/11/07 03:33:19;;;;;;;11.98;3.20;;;;;;;11.16;72.14;98860.00;4972146;28;20490;-76
2023/11/07 03:35:46;;;;;;;11.45;3.60;;;;;;;11.19;72.05;98863.28;4972333;28;20055;-76
2023/11/07 03:38:14;;;;;;;7.65;2.95;;;;;;;11.22;72.17;98870.13;4972109;28;20055;-76
2023/11/07 03:40:40;;;;;;;12.00;3.55;;;;;;;11.24;71.93;98869.97;4972011;28;20086;-77
2023/11/07 03:43:08;;;;;;;10.13;3.38;;;;;;;11.26;71.72;98868.94;4971944;28;20098;-78
2023/11/07 03:45:34;;;;;;;9.05;4.00;;;;;;;11.28;71.91;98868.78;4972007;28;20085;-77
2023/11/07 03:48:01;;;;;;;7.55;3.67;;;;;;;11.29;71.90;98873.94;4971807;28;20484;-76
2023/11/07 03:50:29;;;;;;;7.70;3.17;;;;;;;11.31;72.03;98871.19;4971802;28;20437;-76
2023/11/07 03:52:56;;;;;;;8.63;3.58;;;;;;;11.32;71.89;98872.88;4972037;28;20059;-76
2023/11/07 03:55:23;;;;;;;5.38;3.17;;;;;;;11.33;71.78;98880.66;4971922;28;20113;-76
2023/11/07 03:57:50;;;;;;;9.15;3.67;;;;;;;11.34;71.67;98874.44;4971684;28;20055;-78
2023/11/07 04:00:19;;;;;;;10.25;3.53;;;;;;;11.36;71.76;98884.03;4971907;28;20389;-77
2023/11/07 04:02:46;;;;;;;12.68;3.97;;;;;;;11.36;71.83;98873.50;4971761;28;20141;-77
2023/11/07 04:05:12;;;;;;;11.55;3.70;;;;;;;11.37;72.07;98881.31;4971783;28;20484;-77
2023/11/07 04:07:39;;;;;;;9.45;3.88;;;;;;;11.38;71.90;98887.41;4971690;28;20047;-77
2023/11/07 04:10:06;;;;;;;7.50;4.07;;;;;;;11.39;71.79;98883.78;4971561;28;20046;-78
2023/11/07 04:12:33;;;;;;;10.80;4.20;;;;;;;11.40;71.73;98896.03;4971578;28;20061;-76
2023/11/07 04:15:05;;;;;;;8.55;4.20;;;;;;;11.42;71.64;98894.13;4971878;28;20407;-76
2023/11/07 04:17:33;;;;;;;9.02;4.13;;;;;;;11.42;71.73;98896.75;4971893;28;20414;-77
2023/11/07 04:20:00;;;;;;;10.48;3.80;;;;;;;11.44;71.71;98900.13;4971595;28;20134;-76
2023/11/07 04:22:28;;;;;;;12.75;3.80;;;;;;;11.44;71.82;98903.59;4971604;28;20090;-77
2023/11/07 04:24:54;;;;;;;10.07;3.70;;;;;;;11.46;71.83;98898.22;4970387;28;20050;-77
2023/11/07 04:27:22;;;;;;;8.70;3.53;;;;;;;11.47;71.81;98902.50;4971665;28;20086;-78
2023/11/07 04:29:48;;;;;;;10.63;4.20;;;;;;;11.50;71.76;98897.03;4971580;28;20082;-76
2023/11/07 04:32:15;;;;;;;8.77;3.70;;;;;;;11.51;71.56;98906.59;4971482;28;20057;-77
2023/11/07 04:34:43;;;;;;;7.35;3.97;;;;;;;11.52;71.66;98907.47;4972863;28;20089;-77
2023/11/07 04:37:10;;;;;;;7.32;4.07;;;;;;;11.52;71.62;98910.94;4975109;28;20058;-78
2023/11/07 04:39:37;;;;;;;8.90;4.35;;;;;;;11.54;71.72;98900.25;4974940;28;20051;-77
2023/11/07 04:42:05;;;;;;;10.30;4.32;;;;;;;11.54;71.64;98900.25;4975013;28;20054;-76
2023/11/07 04:44:32;;;;;;;10.75;4.78;;;;;;;11.55;71.73;98894.06;4974981;28;20424;-77
2023/11/07 04:47:02;;;;;;;11.98;4.78;;;;;;;11.56;71.68;98911.53;4974938;28;20141;-77
2023/11/07 04:49:31;;;;;;;10.77;4.78;;;;;;;11.57;71.84;98905.31;4974840;28;20139;-77
2023/11/07 04:51:58;;;;;;;14.85;5.50;;;;;;;11.58;71.74;98904.34;4974608;28;20050;-76
2023/11/07 04:54:28;;;;;;;14.35;4.82;;;;;;;11.59;71.54;98911.31;4974964;28;20403;-77
2023/11/07 04:56:54;;;;;;;9.15;4.88;;;;;;;11.58;71.60;98905.19;4974703;28;20042;-76
2023/11/07 04:59:23;;;;;;;10.05;4.88;;;;;;;11.58;71.70;98905.19;4974815;28;20050;-77
2023/11/07 05:01:50;;;;;;;10.23;4.97;;;;;;;11.59;71.58;98904.22;4973260;28;20051;-75
2023/11/07 05:04:17;;;;;;;12.68;5.47;;;;;;;11.59;71.53;98895.50;4974694;28;20262;-77
2023/11/07 05:06:44;;;;;;;12.18;5.57;;;;;;;11.60;71.62;98907.72;4974448;28;20074;-76
2023/11/07 05:09:12;;;;;;;8.52;5.30;;;;;;;11.61;71.64;98898.84;4973440;28;20051;-76
2023/11/07 05:11:40;;;;;;;13.18;5.10;;;;;;;11.62;71.45;98899.69;4974398;28;20105;-77
2023/11/07 05:14:08;;;;;;;8.27;5.20;;;;;;;11.63;71.54;98911.91;4974537;28;20139;-77
2023/11/07 05:16:36;;;;;;;13.43;5.05;;;;;;;11.64;71.56;98910.97;4974529;28;20129;-78
2023/11/07 05:19:03;;;;;;;9.05;4.97;;;;;;;11.65;71.59;98910.00;4974192;28;20071;-77
2023/11/07 05:21:30;;;;;;;12.10;5.13;;;;;;;11.66;71.71;98907.25;4974297;28;20129;-77
2023/11/07 05:23:57;;;;;;;15.55;6.00;;;;;;;11.67;71.59;98906.28;4974342;28;20495;-77
2023/11/07 05:26:24;;;;;;;13.48;5.40;;;;;;;11.68;71.42;98910.63;4974271;28;20058;-77
2023/11/07 05:28:50;;;;;;;9.73;5.63;;;;;;;11.69;71.46;98917.56;4974207;28;20050;-77
2023/11/07 05:31:20;;;;;;;12.18;5.00;;;;;;;11.70;71.52;98913.97;4973883;28;20535;-77
2023/11/07 05:33:46;;;;;;;12.05;5.10;;;;;;;11.71;71.51;98914.81;4973976;28;20051;-77
2023/11/07 05:36:15;;;;;;;7.40;4.82;;;;;;;11.71;71.38;98926.19;4974163;28;20727;-77
2023/11/07 05:38:45;;;;;;;8.70;4.55;;;;;;;11.72;71.42;98919.13;4972857;28;20112;-77
2023/11/07 05:41:12;;;;;;;7.22;4.85;;;;;;;11.72;71.29;98922.63;4973804;28;20054;-77
2023/11/07 05:43:39;;;;;;;13.25;4.85;;;;;;;11.72;71.34;98929.69;4973865;28;20487;-76
2023/11/07 05:46:06;;;;;;;10.25;4.53;;;;;;;11.72;71.49;98927.03;4973180;28;20055;-76
2023/11/07 05:48:32;;;;;;;11.18;4.93;;;;;;;11.73;71.13;98924.28;4973568;28;20094;-77
2023/11/07 05:50:59;;;;;;;10.57;4.80;;;;;;;11.73;71.08;98923.44;4973702;28;20109;-77
2023/11/07 05:53:26;;;;;;;13.43;4.10;;;;;;;11.73;71.07;98919.03;4973733;28;20804;-76
2023/11/07 05:55:52;;;;;;;9.45;3.90;;;;;;;11.74;71.11;98933.06;4973727;28;20050;-77
2023/11/07 05:58:19;;;;;;;6.03;3.88;;;;;;;11.73;71.02;98923.44;4972380;28;20113;-77
2023/11/07 06:00:46;;;;;;;7.88;4.30;;;;;;;11.72;71.09;98921.78;4973316;28;20059;-77
2023/11/07 06:03:15;;;;;;;12.48;4.55;;;;;;;11.72;70.90;98927.91;4973684;28;20109;-75
2023/11/07 06:05:42;;;;;;;10.75;4.28;;;;;;;11.72;70.96;98925.25;4973626;28;20097;-77
2023/11/07 06:08:11;;;;;;;8.82;4.40;;;;;;;11.73;71.12;98931.34;4973344;28;20058;-76
2023/11/07 06:10:38;;;;;;;7.13;4.43;;;;;;;11.74;71.07;98938.31;4973179;28;20066;-78
2023/11/07 06:13:05;;;;;;;9.77;4.97;;;;;;;11.73;70.94;98934.00;4973288;28;20097;-76
2023/11/07 06:15:32;;;;;;;10.07;3.90;;;;;;;11.75;70.81;98931.25;4973007;28;20062;-76
2023/11/07 06:17:59;;;;;;;10.40;4.90;;;;;;;11.75;70.84;98936.50;4973215;28;20522;-76
2023/11/07 06:20:26;;;;;;;8.07;4.00;;;;;;;11.75;70.91;98939.16;4973141;28;20078;-77
2023/11/07 06:22:52;;;;;;;7.72;4.30;;;;;;;11.76;70.73;98940.81;4973190;28;20066;-77
2023/11/07 06:25:20;;;;;;;8.88;4.38;;;;;;;11.76;71.04;98944.31;4973192;28;20046;-76
2023/11/07 06:27:47;;;;;;;8.98;3.92;;;;;;;11.76;70.74;98933.75;4973015;28;20053;-77
2023/11/07 06:30:18;;;;;;;10.88;4.03;;;;;;;11.76;70.46;98944.31;4972949;28;20050;-78
2023/11/07 06:32:45;;;;;;;8.80;4.25;;;;;;;11.79;70.63;98949.38;4971844;28;20066;-76
2023/11/07 06:35:14;;;;;;;6.97;4.10;;;;;;;11.80;70.73;98950.19;4972955;28;20057;-77
2023/11/07 06:37:40;;;;;;;8.40;3.92;;;;;;;11.79;70.70;98952.00;4972829;28;20058;-77
2023/11/07 06:40:14;;;;;;;7.30;3.97;;;;;;;11.81;70.62;98970.34;4972365;28;20054;-77
2023/11/07 06:42:45;;;;;;;7.82;4.25;;;;;;;11.80;70.52;98961.59;4971203;28;20047;-76
2023/11/07 06:45:13;;;;;;;10.05;4.00;;;;;;;11.81;70.47;98967.72;4970765;28;20772;-76
2023/11/07 06:47:44;;;;;;;7.20;3.65;;;;;;;11.79;70.34;98965.19;4971563;28;20054;-76
2023/11/07 06:50:14;;;;;;;6.65;4.32;;;;;;;11.80;70.47;98966.84;4971829;28;20043;-76
2023/11/07 06:52:42;;;;;;;6.57;3.60;;;;;;;11.82;70.74;98969.38;4972059;28;20455;-77
2023/11/07 06:55:13;;;;;;;6.30;3.72;;;;;;;11.82;70.45;98970.19;4971963;28;20058;-75
2023/11/07 06:57:41;;;;;;;5.10;3.33;;;;;;;11.83;70.32;98976.34;4971373;28;20073;-77
2023/11/07 07:00:09;;;;;;;5.20;3.22;;;;;;;11.84;70.35;98980.63;4972410;28;20055;-76
2023/11/07 07:02:37;;;;;;;8.93;3.60;;;;;;;11.84;70.39;98978.84;4972356;28;20515;-76
2023/11/07 07:05:04;;;;;;;6.80;3.28;;;;;;;11.85;70.35;98985.81;4973040;28;20117;-76
2023/11/07 07:07:31;;;;;;;7.15;3.20;;;;;;;11.85;70.28;98988.44;4972183;28;20141;-77
2023/11/07 07:09:58;;;;;;;7.90;3.22;;;;;;;11.86;70.39;98987.47;4972293;28;20447;-76
2023/11/07 07:12:24;;;;;;;6.57;3.30;;;;;;;11.86;70.35;98994.56;4972486;28;20149;-76
2023/11/07 07:14:51;;;;;;;5.55;3.00;;;;;;;11.88;70.25;98989.19;4972292;28;20503;-76
2023/11/07 07:17:19;;;;;;;12.85;3.50;;;;;;;11.87;70.38;98993.59;4972063;28;20059;-76
2023/11/07 07:19:46;;;;;;;13.00;4.68;;;;;;;11.86;70.27;99008.56;4972279;28;20065;-77
2023/11/07 07:22:12;;;;;;;6.03;3.38;;;;;;;11.87;70.39;99004.16;4971901;28;20396;-76
2023/11/07 07:24:40;;;;;;;10.77;3.80;;;;;;;11.89;70.31;99004.03;4972391;28;20118;-77
2023/11/07 07:27:11;;;;;;;9.30;3.53;;;;;;;11.89;70.41;99004.88;4972107;28;20106;-77
2023/11/07 07:29:38;;;;;;;10.90;4.13;;;;;;;11.89;70.36;99007.50;4972003;28;20133;-76
2023/11/07 07:32:05;;;;;;;7.95;3.58;;;;;;;11.91;70.35;99010.03;4971870;28;20070;-76
2023/11/07 07:34:32;;;;;;;7.70;3.63;;;;;;;11.91;70.15;99013.53;4972060;28;20089;-76
2023/11/07 07:36:58;;;;;;;8.88;3.42;;;;;;;11.92;70.21;99011.72;4971813;28;20530;-76
2023/11/07 07:39:28;;;;;;;9.55;3.55;;;;;;;11.92;70.44;98998.56;4972217;28;20059;-76
2023/11/07 07:41:58;;;;;;;6.57;3.40;;;;;;;11.93;70.26;99010.78;4971700;28;20051;-75
2023/11/07 07:44:25;;;;;;;9.90;3.67;;;;;;;11.93;70.26;99014.22;4971927;28;20404;-76
2023/11/07 07:46:53;;;;;;;8.50;3.15;;;;;;;11.93;70.18;99014.22;4971732;28;20058;-75
2023/11/07 07:49:23;;;;;;;7.50;3.72;;;;;;;11.96;70.13;99021.09;4971621;28;20057;-76
2023/11/07 07:51:52;;;;;;;7.60;3.35;;;;;;;11.96;70.12;99023.75;4971663;28;20090;-76
2023/11/07 07:54:22;;;;;;;5.78;3.58;;;;;;;11.97;70.07;99017.50;4970797;28;20058;-76
2023/11/07 07:57:09;;;;;;;6.00;2.85;;;;;;;11.98;70.22;99024.44;4971601;28;20479;-76
2023/11/07 07:59:40;;;;;;;8.65;3.40;;;;;;;11.98;70.33;99027.09;4956250;28;20520;-76
2023/11/07 08:02:07;;;;;;;6.65;3.33;;;;;;;11.98;70.28;99022.66;4951419;29;20087;-77
2023/11/07 08:04:34;;;;;;;6.18;3.78;;;;;;;11.99;70.23;99026.97;4952678;28;20066;-76
2023/11/07 08:07:01;;;;;;;6.53;3.10;;;;;;;12.01;70.26;99018.94;4952354;28;20526;-76
2023/11/07 08:09:28;;;;;;;9.43;3.60;;;;;;;12.03;70.36;99026.75;4953595;28;20055;-76
2023/11/07 08:12:00;;;;;;;7.40;3.70;;;;;;;12.05;70.46;99025.72;4955974;28;20054;-76
2023/11/07 08:14:29;;;;;;;7.47;3.25;;;;;;;12.09;70.61;99021.88;4956254;28;20063;-77
2023/11/07 08:16:55;;;;;;;11.50;3.78;;;;;;;12.13;70.71;99025.13;4955978;28;20061;-76
2023/11/07 08:19:22;;;;;;;6.72;3.70;;;;;;;12.18;70.64;99022.97;4956268;28;20058;-76
2023/11/07 08:21:49;;;;;;;7.40;3.30;;;;;;;12.22;70.36;99029.69;4955869;28;20059;-77
2023/11/07 08:24:16;;;;;;;6.57;3.25;;;;;;;12.28;70.34;99015.22;4956115;29;20094;-77
2023/11/07 08:26:43;;;;;;;7.93;3.53;;;;;;;12.31;69.88;99022.06;4955870;28;20062;-76
2023/11/07 08:29:11;;;;;;;9.27;3.40;;;;;;;12.33;69.71;99030.66;4956103;28;20062;-76
2023/11/07 08:31:38;;;;;;;8.70;3.22;;;;;;;12.35;69.69;99031.41;4955679;28;20047;-76
2023/11/07 08:34:09;;;;;;;4.95;2.83;;;;;;;12.35;69.64;99034.91;4956049;28;20094;-76
2023/11/07 08:36:39;;;;;;;6.13;2.42;;;;;;;12.33;69.26;99039.44;4955808;28;20793;-78
2023/11/07 08:39:24;;;;;;;5.80;2.83;;;;;;;12.36;69.83;99038.38;4955810;28;20142;-78
2023/11/07 08:41:50;;;;;;;7.68;3.10;;;;;;;12.37;69.79;99034.75;4955733;28;20510;-77
2023/11/07 08:44:19;;;;;;;5.80;2.75;;;;;;;12.37;69.49;99048.81;4955871;28;20058;-76
2023/11/07 08:46:45;;;;;;;6.03;2.67;;;;;;;12.37;69.51;99043.53;4955719;28;20055;-75
2023/11/07 08:49:13;;;;;;;9.48;2.92;;;;;;;12.38;69.37;99045.22;4955572;28;20047;-76
2023/11/07 08:51:39;;;;;;;7.32;3.13;;;;;;;12.38;69.49;99044.38;4955394;28;20403;-76
2023/11/07 08:54:07;;;;;;;6.78;3.25;;;;;;;12.38;69.30;99054.94;4955830;28;20082;-76
2023/11/07 08:56:34;;;;;;;6.22;2.78;;;;;;;12.38;69.35;99044.38;4955802;28;20053;-77
2023/11/07 08:59:01;;;;;;;3.80;2.97;;;;;;;12.38;69.39;99047.84;4955567;28;20147;-75
2023/11/07 09:01:27;;;;;;;6.45;3.00;;;;;;;12.38;69.43;99050.47;4955311;28;20051;-77
2023/11/07 09:03:54;;;;;;;6.90;3.33;;;;;;;12.40;69.56;99045.09;4955352;28;20059;-76
2023/11/07 09:06:20;;;;;;;5.55;3.22;;;;;;;12.42;69.54;99052.91;4955224;28;20051;-76
2023/11/07 09:08:47;;;;;;;5.20;2.83;;;;;;;12.42;69.57;99047.63;4955453;28;20050;-76
2023/11/07 09:11:13;;;;;;;6.75;2.70;;;;;;;12.45;69.58;99055.31;4955226;28;20515;-76
2023/11/07 09:13:40;;;;;;;5.05;2.78;;;;;;;12.46;69.28;99055.19;4955506;28;20102;-76
2023/11/07 09:16:08;;;;;;;6.47;3.05;;;;;;;12.47;69.12;99053.38;4955116;28;20114;-77
2023/11/07 09:18:37;;;;;;;6.15;2.95;;;;;;;12.49;69.17;99062.03;4954895;28;20651;-76
2023/11/07 09:21:04;;;;;;;5.55;2.75;;;;;;;12.49;69.21;99068.16;4953640;28;20118;-77
2023/11/07 09:23:31;;;;;;;7.40;2.85;;;;;;;12.50;69.20;99063.72;4954733;28;20044;-77
2023/11/07 09:25:58;;;;;;;5.15;2.72;;;;;;;12.52;69.33;99067.06;4954950;28;20059;-76
2023/11/07 09:28:25;;;;;;;4.40;2.47;;;;;;;12.56;69.54;99073.78;4953747;29;20058;-76
2023/11/07 09:30:51;;;;;;;5.72;2.60;;;;;;;12.59;69.87;99065.66;4954622;28;20138;-76
2023/11/07 09:33:19;;;;;;;9.20;3.15;;;;;;;12.65;69.60;99064.34;4954717;28;20094;-75
2023/11/07 09:35:45;;;;;;;4.78;2.78;;;;;;;12.70;69.41;99067.47;4954877;29;20059;-76
2023/11/07 09:38:13;;;;;;;5.43;2.65;;;;;;;12.75;69.71;99067.13;4955123;28;20051;-75
2023/11/07 09:40:44;;;;;;;12.85;2.65;;;;;;;12.82;69.18;99076.22;4954619;28;20534;-77
2023/11/07 09:43:12;;;;;;;6.63;2.83;;;;;;;12.90;69.64;99076.47;4954807;28;20051;-77
2023/11/07 09:45:39;;;;;;;6.60;2.67;;;;;;;12.94;69.00;99077.09;4953371;29;20063;-75
2023/11/07 09:48:09;;;;;;;3.38;2.20;;;;;;;12.97;68.51;99076.84;4954439;28;20482;-77
2023/11/07 09:50:41;;;;;;;6.93;2.40;;;;;;;12.98;67.92;99077.69;4954534;28;20051;-76
2023/11/07 09:53:13;;;;;;;3.97;2.55;;;;;;;12.93;67.41;99078.03;4954583;28;20883;-76
2023/11/07 09:55:40;;;;;;;8.68;3.20;;;;;;;12.92;67.61;99079.00;4954537;28;20595;-77
2023/11/07 09:58:07;;;;;;;8.68;2.72;;;;;;;12.88;67.90;99073.13;4954449;28;20059;-76
2023/11/07 10:00:43;;;;;;;4.07;2.20;;;;;;;12.87;67.88;99081.16;4954244;28;20059;-77
2023/11/07 10:03:11;;;;;;;4.03;2.35;;;;;;;12.85;68.05;99073.34;4954443;28;20086;-76
2023/11/07 10:05:40;;;;;;;5.75;2.53;;;;;;;12.85;68.26;99088.34;4953181;29;20062;-77
2023/11/07 10:08:06;;;;;;;7.25;2.65;;;;;;;12.85;68.12;99083.06;4954187;28;20532;-76
2023/11/07 10:10:34;;;;;;;4.97;2.72;;;;;;;12.84;68.24;99090.16;4954044;28;20082;-76
2023/11/07 10:13:08;;;;;;;3.65;2.40;;;;;;;12.84;67.19;99081.41;4954029;28;20082;-76
2023/11/07 10:15:36;;;;;;;3.75;2.40;;;;;;;12.87;68.25;99092.56;4954180;28;20043;-76
2023/11/07 10:18:10;;;;;;;2.92;2.53;;;;;;;12.87;67.83;99082.00;4954062;28;20066;-76
2023/11/07 10:20:50;;;;;;;6.22;2.40;;;;;;;12.87;67.71;99076.72;4953978;28;20055;-75
2023/11/07 10:23:17;;;;;;;4.53;2.63;;;;;;;12.94;68.57;99084.16;4953904;28;20051;-77
2023/11/07 10:25:49;;;;;;;3.25;2.53;;;;;;;12.95;68.45;99084.06;4953966;28;20055;-76
2023/11/07 10:28:21;;;;;;;6.18;2.60;;;;;;;12.98;67.78;99088.25;4953995;28;20055;-76
2023/11/07 10:30:49;;;;;;;6.45;2.58;;;;;;;13.00;67.82;99081.03;4953430;28;20047;-76
2023/11/07 10:33:29;;;;;;;4.43;2.40;;;;;;;12.97;67.02;99087.41;4953383;28;20093;-76
2023/11/07 10:36:01;;;;;;;4.60;2.17;;;;;;;13.01;67.65;99085.38;4953483;28;20047;-76
2023/11/07 10:38:29;;;;;;;6.75;2.20;;;;;;;13.01;67.54;99086.19;4952579;28;20496;-77
2023/11/07 10:40:57;;;;;;;3.80;2.40;;;;;;;13.01;67.58;99085.38;4951938;28;20055;-76
2023/11/07 10:43:36;;;;;;;3.60;2.13;;;;;;;12.99;67.13;99087.28;4952719;28;20055;-78
2023/11/07 10:46:05;;;;;;;5.43;2.08;;;;;;;13.00;67.59;99089.81;4952110;28;20522;-77
2023/11/07 10:48:38;;;;;;;4.85;1.90;;;;;;;13.02;68.11;99084.41;4952176;28;20897;-77
2023/11/07 10:51:10;;;;;;;3.35;1.80;;;;;;;13.02;66.86;99087.06;4952478;28;20054;-76
2023/11/07 10:53:41;;;;;;;3.45;1.95;;;;;;;13.06;67.93;99085.00;4953143;29;20054;-77
2023/11/07 10:56:18;;;;;;;2.70;1.50;;;;;;;13.07;67.39;99092.81;4952242;28;20043;-76
2023/11/07 10:58:54;;;;;;;4.03;2.00;;;;;;;13.11;67.13;99098.69;4953334;29;20141;-77
2023/11/07 11:01:21;;;;;;;3.83;1.73;;;;;;;13.14;67.90;99082.59;4953079;28;20055;-76
2023/11/07 11:03:53;;;;;;;7.68;2.10;;;;;;;13.12;66.49;99082.72;4953233;28;20055;-77
2023/11/07 11:06:23;;;;;;;2.83;1.48;;;;;;;13.14;67.05;99083.44;4953306;28;20055;-76
2023/11/07 11:08:55;;;;;;;2.70;1.40;;;;;;;13.13;66.54;99079.09;4953132;28;20047;-77
2023/11/07 11:11:24;;;;;;;6.82;1.40;;;;;;;13.11;66.60;99077.56;4952844;28;20051;-77
2023/11/07 11:13:55;;;;;;;3.05;1.50;;;;;;;13.11;66.81;99080.19;4953305;28;20117;-77
2023/11/07 11:16:22;;;;;;;3.60;1.88;;;;;;;13.08;66.78;99073.34;4952879;28;20051;-76
2023/11/07 11:19:01;;;;;;;2.28;1.50;;;;;;;13.02;65.66;99079.94;4953248;28;20353;-76
2023/11/07 11:21:54;;;;;;;2.78;1.40;;;;;;;13.01;65.68;99080.09;4952751;28;20102;-77
2023/11/07 11:24:27;;;;;;;2.75;1.65;;;;;;;12.99;65.79;99084.66;4952809;29;20420;-77
2023/11/07 11:27:06;;;;;;;5.88;1.70;;;;;;;12.96;65.90;99082.22;4952799;28;20508;-77
2023/11/07 11:29:33;;;;;;;2.25;1.63;;;;;;;12.96;66.79;99063.75;4952796;28;20065;-78
2023/11/07 11:32:27;;;;;;;3.25;1.40;;;;;;;12.90;66.46;99076.47;4952471;28;20063;-78
2023/11/07 11:35:12;;;;;;;;;;;;;;;12.95;66.33;99056.78;4953489;28;20047;-76
2023/11/07 11:38:12;;;;;;;1.52;1.42;;;;;;;13.03;67.28;99060.53;4952873;28;19922;-77